Time;durP1;ratioP1;P1;durP2;ratioP2;P2;SDS_P1;SDS_P2;PMS_P1;PMS_P2;Temp;Humidity;BMP_temperature;BMP_pressure;BME280_temperature;BME280_humidity;BME280_pressure;Samples;Min_cycle;Max_cycle;Signal;HPM_P1;HPM_P2
2022/03/10 00:01:27;;;;;;;24.70;14.77;;;4.60;99.90;;;;;;5027964;28;20175;-63
2022/03/10 00:03:52;;;;;;;23.42;13.60;;;4.70;99.90;;;;;;5026655;28;21134;-62
2022/03/10 00:06:18;;;;;;;21.63;13.02;;;4.60;99.90;;;;;;5027108;28;20112;-63
2022/03/10 00:08:44;;;;;;;21.25;12.98;;;4.60;99.90;;;;;;5024000;28;20033;-63
2022/03/10 00:11:09;;;;;;;23.60;12.90;;;4.40;99.90;;;;;;5021967;28;20112;-63
2022/03/10 00:13:35;;;;;;;21.10;12.82;;;4.50;99.90;;;;;;5024555;28;20163;-63
2022/03/10 00:16:01;;;;;;;23.55;13.48;;;4.30;99.90;;;;;;5029446;28;20036;-63
2022/03/10 00:18:26;;;;;;;22.35;13.57;;;4.30;99.90;;;;;;5025367;28;20036;-62
2022/03/10 00:20:52;;;;;;;20.70;13.13;;;4.20;99.90;;;;;;5027456;28;20496;-61
2022/03/10 00:23:18;;;;;;;21.20;13.35;;;4.30;99.90;;;;;;5021269;28;20076;-63
2022/03/10 00:25:44;;;;;;;21.80;12.77;;;4.30;99.90;;;;;;5026046;28;20029;-63
2022/03/10 00:28:09;;;;;;;23.92;13.30;;;4.30;99.90;;;;;;5026384;28;20044;-62
2022/03/10 00:30:35;;;;;;;23.13;13.75;;;4.00;99.90;;;;;;5030094;28;20450;-63
2022/03/10 00:33:01;;;;;;;25.02;14.15;;;4.00;99.90;;;;;;5029986;28;20076;-62
2022/03/10 00:35:26;;;;;;;27.70;14.43;;;4.10;99.90;;;;;;5027247;28;20014;-63
2022/03/10 00:37:53;;;;;;;22.60;13.80;;;4.20;99.90;;;;;;5029185;28;20060;-62
2022/03/10 00:40:20;;;;;;;25.92;14.45;;;4.10;99.90;;;;;;5022529;28;20104;-63
2022/03/10 00:42:46;;;;;;;23.73;13.40;;;4.00;99.90;;;;;;5027520;28;20053;-61
2022/03/10 00:45:13;;;;;;;22.90;13.15;;;4.00;99.90;;;;;;5025340;28;20052;-62
2022/03/10 00:47:39;;;;;;;23.13;13.73;;;4.00;99.90;;;;;;5026943;28;20021;-63
2022/03/10 00:50:06;;;;;;;21.38;13.65;;;4.00;99.90;;;;;;5023546;28;20111;-63
2022/03/10 00:52:32;;;;;;;25.65;13.77;;;3.90;99.90;;;;;;5023558;28;20037;-62
2022/03/10 00:54:58;;;;;;;22.58;13.13;;;4.00;99.90;;;;;;5024180;28;20384;-63
2022/03/10 00:57:24;;;;;;;23.17;12.65;;;3.90;99.90;;;;;;5027667;28;20048;-63
2022/03/10 00:59:49;;;;;;;23.83;13.55;;;4.10;99.90;;;;;;5024949;28;20026;-62
2022/03/10 01:02:15;;;;;;;22.02;12.73;;;4.30;99.90;;;;;;5034925;28;20439;-61
2022/03/10 01:04:41;;;;;;;22.33;12.40;;;4.20;99.90;;;;;;5026934;28;20040;-63
2022/03/10 01:07:07;;;;;;;18.38;11.73;;;4.20;99.90;;;;;;5027844;28;20047;-62
2022/03/10 01:09:33;;;;;;;18.92;11.70;;;4.30;99.90;;;;;;5027128;28;20410;-63
2022/03/10 01:11:58;;;;;;;19.65;11.65;;;4.40;99.90;;;;;;5030227;28;20108;-62
2022/03/10 01:14:24;;;;;;;22.83;12.30;;;4.60;99.90;;;;;;5023574;28;20041;-63
2022/03/10 01:16:49;;;;;;;19.15;12.70;;;4.50;99.90;;;;;;5035118;28;20021;-62
2022/03/10 01:19:15;;;;;;;19.60;11.85;;;4.50;99.90;;;;;;5027814;28;20087;-62
2022/03/10 01:21:44;;;;;;;19.52;11.55;;;4.60;99.90;;;;;;5028494;28;20029;-61
2022/03/10 01:24:09;;;;;;;21.88;10.80;;;4.70;99.90;;;;;;5026306;28;20456;-63
2022/03/10 01:26:35;;;;;;;20.10;11.85;;;4.70;99.90;;;;;;5027541;28;20029;-61
2022/03/10 01:29:01;;;;;;;18.60;11.18;;;4.80;99.90;;;;;;5029762;28;20025;-64
2022/03/10 01:31:26;;;;;;;17.98;10.15;;;4.90;99.90;;;;;;5030465;28;20029;-62
2022/03/10 01:33:52;;;;;;;17.83;11.00;;;4.80;99.90;;;;;;5030321;28;20033;-63
2022/03/10 01:36:17;;;;;;;15.73;10.38;;;4.80;99.90;;;;;;5027267;28;20045;-61
2022/03/10 01:38:43;;;;;;;17.65;10.90;;;4.80;99.90;;;;;;5031087;28;20108;-64
2022/03/10 01:41:09;;;;;;;21.30;11.60;;;4.70;99.90;;;;;;5030496;28;20029;-62
2022/03/10 01:44:01;;;;;;;16.27;10.90;;;4.70;99.90;;;;;;5029809;28;20028;-63
2022/03/10 01:46:27;;;;;;;16.92;11.07;;;4.50;99.90;;;;;;5027154;28;20036;-62
2022/03/10 01:48:53;;;;;;;21.10;12.10;;;4.60;99.90;;;;;;5029690;28;20030;-62
2022/03/10 01:51:20;;;;;;;20.10;11.55;;;4.40;99.90;;;;;;5029885;28;20033;-63
2022/03/10 01:53:48;;;;;;;19.33;10.95;;;4.60;99.90;;;;;;5031282;28;20502;-62
2022/03/10 01:56:15;;;;;;;16.33;11.02;;;4.50;99.90;;;;;;5026168;28;20026;-63
2022/03/10 01:58:41;;;;;;;21.63;11.57;;;4.60;99.90;;;;;;5025770;28;20026;-60
2022/03/10 02:01:09;;;;;;;18.55;11.18;;;4.60;99.90;;;;;;5027267;28;20025;-62
2022/03/10 02:03:35;;;;;;;19.77;11.32;;;4.60;99.90;;;;;;5029143;28;20029;-63
2022/03/10 02:06:01;;;;;;;17.63;11.35;;;4.50;99.90;;;;;;5031616;28;20032;-62
2022/03/10 02:11:12;;;;;;;21.10;12.15;;;4.70;99.90;;;;;;5029073;28;20103;-62
2022/03/10 02:13:37;;;;;;;18.70;11.45;;;4.60;99.90;;;;;;5029019;28;20030;-62
2022/03/10 02:18:47;;;;;;;16.98;11.45;;;4.60;99.90;;;;;;5032085;28;20203;-62
2022/03/10 02:21:14;;;;;;;18.65;12.02;;;4.60;99.90;;;;;;5025077;28;20105;-63
2022/03/10 02:23:39;;;;;;;19.65;12.15;;;4.60;99.90;;;;;;5027253;28;20547;-61
2022/03/10 02:26:06;;;;;;;22.55;10.73;;;4.60;99.90;;;;;;5029240;28;20017;-63
2022/03/10 02:28:33;;;;;;;19.02;11.18;;;4.60;99.90;;;;;;5023268;28;20022;-60
2022/03/10 02:30:58;;;;;;;20.27;11.57;;;4.40;99.90;;;;;;5028591;28;20393;-63
2022/03/10 02:33:24;;;;;;;17.20;11.15;;;4.40;99.90;;;;;;5031138;28;20033;-64
2022/03/10 02:35:50;;;;;;;18.55;11.82;;;4.50;99.90;;;;;;5029892;28;20362;-62
2022/03/10 02:38:19;;;;;;;20.55;12.65;;;4.30;99.90;;;;;;5030865;28;20028;-62
2022/03/10 02:40:46;;;;;;;20.50;11.88;;;4.20;99.90;;;;;;5024397;28;20083;-61
2022/03/10 02:43:11;;;;;;;17.35;11.57;;;4.40;99.90;;;;;;5027837;28;20499;-63
2022/03/10 02:45:37;;;;;;;19.10;11.93;;;4.30;99.90;;;;;;5025867;28;20029;-62
2022/03/10 02:48:03;;;;;;;18.65;10.93;;;4.40;99.90;;;;;;5032573;28;20102;-64
2022/03/10 02:50:29;;;;;;;22.50;12.02;;;4.40;99.90;;;;;;5029968;28;20096;-63
2022/03/10 02:52:54;;;;;;;17.35;11.23;;;4.40;99.90;;;;;;5033853;28;20033;-63
2022/03/10 02:55:20;;;;;;;18.50;11.70;;;4.30;99.90;;;;;;5032241;28;20025;-61
2022/03/10 02:57:46;;;;;;;18.70;11.48;;;4.40;99.90;;;;;;5023212;28;20056;-62
2022/03/10 03:00:14;;;;;;;20.80;11.80;;;4.40;99.90;;;;;;5026550;28;20036;-63
2022/03/10 03:02:40;;;;;;;19.25;12.23;;;4.30;99.90;;;;;;5027127;28;20029;-62
2022/03/10 03:05:08;;;;;;;21.40;12.15;;;4.40;99.90;;;;;;5031340;28;20044;-62
2022/03/10 03:07:35;;;;;;;19.20;11.75;;;4.30;99.90;;;;;;5030733;28;20068;-63
2022/03/10 03:10:01;;;;;;;18.52;11.85;;;4.20;99.90;;;;;;5027637;28;20590;-60
2022/03/10 03:12:27;;;;;;;19.05;11.95;;;4.10;99.90;;;;;;5031265;28;20029;-62
2022/03/10 03:14:54;;;;;;;21.70;12.50;;;4.00;99.90;;;;;;5029437;28;20025;-61
2022/03/10 03:17:19;;;;;;;19.13;12.48;;;4.20;99.90;;;;;;5025013;28;20088;-62
2022/03/10 03:19:45;;;;;;;19.10;11.82;;;4.10;99.90;;;;;;5027656;28;20468;-63
2022/03/10 03:22:11;;;;;;;19.67;11.77;;;4.10;99.90;;;;;;5030993;28;20076;-62
2022/03/10 03:24:37;;;;;;;19.35;12.18;;;4.00;99.90;;;;;;5023509;28;20104;-61
2022/03/10 03:27:03;;;;;;;22.88;12.15;;;3.90;99.90;;;;;;5029531;28;20025;-63
2022/03/10 03:29:28;;;;;;;19.92;12.63;;;3.80;99.90;;;;;;5026549;28;20022;-64
2022/03/10 03:31:55;;;;;;;20.65;12.13;;;3.70;99.90;;;;;;5033631;28;20029;-63
2022/03/10 03:34:20;;;;;;;20.83;11.98;;;3.70;99.90;;;;;;5030307;28;20626;-63
2022/03/10 03:36:46;;;;;;;23.95;12.65;;;3.70;99.90;;;;;;5027510;28;20018;-62
2022/03/10 03:39:13;;;;;;;18.83;12.38;;;3.80;99.90;;;;;;5026719;28;20021;-64
2022/03/10 03:41:39;;;;;;;20.55;13.00;;;3.70;99.90;;;;;;5033728;28;20111;-63
2022/03/10 03:44:08;;;;;;;22.27;13.07;;;3.70;99.90;;;;;;5026457;28;20036;-62
2022/03/10 03:46:34;;;;;;;18.67;11.68;;;3.70;99.90;;;;;;5031118;28;20412;-62
2022/03/10 03:49:00;;;;;;;20.55;12.63;;;3.70;99.90;;;;;;5033184;28;20026;-63
2022/03/10 03:51:26;;;;;;;21.23;13.25;;;3.70;99.90;;;;;;5033379;28;20056;-61
2022/03/10 03:53:51;;;;;;;24.02;12.88;;;3.60;99.90;;;;;;5032899;28;20734;-63
2022/03/10 03:56:17;;;;;;;21.17;12.57;;;3.50;99.90;;;;;;5028065;28;20025;-64
2022/03/10 03:58:43;;;;;;;19.20;12.45;;;3.50;99.90;;;;;;5024588;28;20159;-61
2022/03/10 04:01:09;;;;;;;21.85;12.68;;;3.40;99.90;;;;;;5033558;28;20036;-62
2022/03/10 04:03:35;;;;;;;22.95;12.95;;;3.50;99.90;;;;;;5022448;28;20034;-62
2022/03/10 04:06:00;;;;;;;22.88;13.20;;;3.40;99.90;;;;;;5032911;28;20028;-62
2022/03/10 04:08:26;;;;;;;22.35;12.95;;;3.40;99.90;;;;;;5036320;28;20025;-61
2022/03/10 04:10:52;;;;;;;20.90;13.23;;;3.40;99.90;;;;;;5024345;28;20104;-61
2022/03/10 04:13:19;;;;;;;22.88;13.77;;;3.30;99.90;;;;;;5029702;28;20058;-60
2022/03/10 04:15:45;;;;;;;26.05;13.05;;;3.40;99.90;;;;;;5027091;28;20036;-63
2022/03/10 04:18:10;;;;;;;25.38;13.55;;;3.30;99.90;;;;;;5030212;28;20021;-63
2022/03/10 04:20:36;;;;;;;21.42;13.00;;;3.30;99.90;;;;;;5025913;28;20022;-60
2022/03/10 04:23:01;;;;;;;22.60;12.60;;;3.50;99.90;;;;;;5026763;28;20041;-63
2022/03/10 04:25:27;;;;;;;23.23;12.32;;;3.50;99.90;;;;;;5017952;28;20529;-60
2022/03/10 04:27:56;;;;;;;24.50;13.43;;;3.40;99.90;;;;;;5026513;28;20040;-62
2022/03/10 04:30:22;;;;;;;22.88;13.68;;;3.30;99.90;;;;;;5025852;28;20021;-61
2022/03/10 04:32:48;;;;;;;22.80;12.77;;;3.50;99.90;;;;;;5028866;28;20045;-62
2022/03/10 04:35:16;;;;;;;22.45;12.90;;;3.50;99.90;;;;;;5027560;28;20053;-62
2022/03/10 04:37:49;;;;;;;24.95;13.23;;;3.50;99.90;;;;;;5027644;28;20362;-63
2022/03/10 04:40:15;;;;;;;19.95;10.00;;;3.40;99.90;;;;;;5026529;28;20381;-63
2022/03/10 04:42:41;;;;;;;19.67;13.20;;;3.40;99.90;;;;;;5029230;28;20037;-63
2022/03/10 04:45:07;;;;;;;24.40;13.18;;;3.30;99.90;;;;;;5028382;28;20467;-63
2022/03/10 04:47:33;;;;;;;26.10;13.90;;;3.10;99.90;;;;;;5029169;28;20255;-63
2022/03/10 04:49:59;;;;;;;21.90;13.13;;;3.30;99.90;;;;;;5031923;28;20056;-63
2022/03/10 04:52:26;;;;;;;26.50;13.80;;;3.20;99.90;;;;;;5032204;28;20033;-63
2022/03/10 04:54:52;;;;;;;22.52;14.00;;;3.30;99.90;;;;;;5027951;28;20021;-61
2022/03/10 04:57:17;;;;;;;20.88;13.25;;;3.30;99.90;;;;;;5027002;28;20480;-63
2022/03/10 04:59:43;;;;;;;26.42;14.00;;;3.40;99.90;;;;;;5026404;28;20105;-61
2022/03/10 05:02:09;;;;;;;24.20;13.75;;;3.20;99.90;;;;;;5029806;28;20226;-63
2022/03/10 05:04:34;;;;;;;20.58;12.48;;;3.30;99.90;;;;;;5031051;28;20618;-63
2022/03/10 05:07:00;;;;;;;21.75;12.85;;;3.30;99.90;;;;;;5033336;28;20029;-61
2022/03/10 05:09:26;;;;;;;22.15;13.60;;;3.20;99.90;;;;;;5034329;28;20040;-63
2022/03/10 05:11:51;;;;;;;25.55;14.07;;;3.10;99.90;;;;;;5027619;28;20111;-62
2022/03/10 05:14:17;;;;;;;24.50;14.10;;;2.90;99.90;;;;;;5029903;28;20353;-63
2022/03/10 05:16:43;;;;;;;27.23;13.00;;;2.80;99.90;;;;;;5035785;28;20135;-62
2022/03/10 05:19:08;;;;;;;21.85;13.57;;;2.70;99.90;;;;;;5035407;28;20132;-61
2022/03/10 05:21:34;;;;;;;24.63;12.70;;;2.70;99.90;;;;;;5027961;28;20037;-62
2022/03/10 05:24:00;;;;;;;28.80;13.95;;;2.70;99.90;;;;;;5028927;28;20064;-63
2022/03/10 05:26:26;;;;;;;22.88;13.70;;;2.80;99.90;;;;;;5031715;28;20033;-63
2022/03/10 05:28:51;;;;;;;24.27;14.23;;;2.80;99.90;;;;;;5032647;28;20040;-61
2022/03/10 05:31:17;;;;;;;21.92;14.05;;;2.70;99.90;;;;;;5030501;28;20079;-61
2022/03/10 05:33:42;;;;;;;24.73;14.50;;;2.70;99.90;;;;;;5029660;28;20507;-62
2022/03/10 05:36:08;;;;;;;22.60;13.23;;;2.80;99.90;;;;;;5033369;28;20017;-62
2022/03/10 05:38:33;;;;;;;22.30;13.77;;;2.60;99.90;;;;;;5034061;28;20383;-63
2022/03/10 05:41:00;;;;;;;24.13;14.13;;;2.50;99.90;;;;;;5030438;28;20021;-62
2022/03/10 05:43:26;;;;;;;24.23;13.15;;;2.60;99.90;;;;;;5032047;28;20029;-61
2022/03/10 05:45:52;;;;;;;22.23;13.68;;;2.40;99.90;;;;;;5031598;28;20032;-61
2022/03/10 05:48:17;;;;;;;23.60;13.90;;;2.50;99.90;;;;;;5032722;28;20021;-63
2022/03/10 05:50:43;;;;;;;24.63;14.25;;;2.40;99.90;;;;;;5026367;28;20025;-62
2022/03/10 05:53:09;;;;;;;23.98;14.23;;;2.50;99.90;;;;;;5030620;28;20047;-62
2022/03/10 05:55:34;;;;;;;24.02;13.93;;;2.40;99.90;;;;;;5029022;28;20835;-61
2022/03/10 05:58:00;;;;;;;25.08;13.18;;;2.40;99.90;;;;;;5029993;28;20475;-61
2022/03/10 06:00:26;;;;;;;23.80;13.48;;;2.40;99.90;;;;;;5030862;28;20526;-63
2022/03/10 06:02:51;;;;;;;24.17;13.27;;;2.30;99.90;;;;;;5026674;28;20428;-61
2022/03/10 06:05:17;;;;;;;25.45;14.20;;;2.40;99.90;;;;;;5029757;28;20029;-62
2022/03/10 06:07:43;;;;;;;22.00;13.27;;;2.50;99.90;;;;;;5031889;28;20024;-62
2022/03/10 06:10:09;;;;;;;25.73;13.77;;;2.40;99.90;;;;;;5031716;28;20046;-62
2022/03/10 06:12:35;;;;;;;21.70;13.60;;;2.30;99.90;;;;;;5027172;28;20036;-63
2022/03/10 06:15:06;;;;;;;23.88;13.68;;;2.40;99.90;;;;;;5031829;28;20659;-62
2022/03/10 06:17:32;;;;;;;24.70;13.85;;;2.20;99.90;;;;;;5028883;28;20464;-63
2022/03/10 06:19:58;;;;;;;23.65;13.82;;;2.40;99.90;;;;;;5035388;28;20028;-63
2022/03/10 06:22:27;;;;;;;22.42;14.05;;;2.40;99.90;;;;;;5027472;28;20029;-63
2022/03/10 06:24:52;;;;;;;26.48;14.88;;;2.40;99.90;;;;;;5031005;28;20044;-62
2022/03/10 06:27:19;;;;;;;29.15;14.50;;;2.30;99.90;;;;;;5027777;28;20412;-62
2022/03/10 06:29:45;;;;;;;24.98;14.73;;;2.40;99.90;;;;;;5029599;28;20017;-61
2022/03/10 06:32:12;;;;;;;22.80;13.20;;;2.40;99.90;;;;;;5029647;28;20025;-62
2022/03/10 06:34:38;;;;;;;25.83;13.65;;;2.40;99.90;;;;;;5028619;28;20108;-62
2022/03/10 06:37:04;;;;;;;22.65;13.77;;;2.60;99.90;;;;;;5040223;28;20485;-63
2022/03/10 06:39:30;;;;;;;20.65;12.98;;;2.60;99.90;;;;;;5028899;28;20128;-63
2022/03/10 06:41:56;;;;;;;22.48;13.50;;;2.80;99.90;;;;;;5027321;28;20109;-63
2022/03/10 06:44:22;;;;;;;29.45;14.00;;;2.90;99.90;;;;;;5031468;28;20026;-61
2022/03/10 06:46:47;;;;;;;22.48;13.35;;;2.90;99.90;;;;;;5026808;28;20033;-63
2022/03/10 06:49:13;;;;;;;23.63;13.35;;;2.90;99.90;;;;;;5028544;28;20083;-62
2022/03/10 06:51:39;;;;;;;24.38;13.82;;;3.10;99.90;;;;;;5031678;28;20064;-63
2022/03/10 06:54:04;;;;;;;25.33;13.35;;;3.20;99.90;;;;;;5027933;28;20025;-62
2022/03/10 06:56:30;;;;;;;27.70;14.30;;;3.30;99.90;;;;;;5033139;28;20029;-62
2022/03/10 06:58:56;;;;;;;25.45;13.70;;;3.50;99.90;;;;;;5035345;28;20035;-62
2022/03/10 07:01:22;;;;;;;25.83;14.35;;;3.60;99.90;;;;;;5028161;28;20491;-62
2022/03/10 07:03:47;;;;;;;26.15;14.10;;;3.60;99.90;;;;;;5029590;28;20113;-63
2022/03/10 07:06:13;;;;;;;22.25;14.25;;;3.80;99.90;;;;;;5031802;28;20047;-62
2022/03/10 07:08:39;;;;;;;27.38;13.63;;;3.90;99.90;;;;;;5023566;28;20470;-62
2022/03/10 07:11:05;;;;;;;22.48;13.48;;;4.10;99.90;;;;;;5025019;28;20056;-63
2022/03/10 07:13:30;;;;;;;25.60;13.70;;;4.20;99.90;;;;;;5024449;28;20456;-62
2022/03/10 07:15:56;;;;;;;25.83;13.00;;;4.30;99.90;;;;;;5030109;28;20032;-61
2022/03/10 07:18:21;;;;;;;23.70;13.80;;;4.40;99.90;;;;;;5024515;28;20036;-61
2022/03/10 07:20:48;;;;;;;26.77;14.00;;;4.50;99.90;;;;;;5026513;28;20048;-61
2022/03/10 07:23:13;;;;;;;22.02;13.15;;;4.60;99.90;;;;;;5018432;28;20633;-61
2022/03/10 07:25:41;;;;;;;23.75;13.75;;;4.70;99.90;;;;;;5030466;28;20060;-61
2022/03/10 07:28:07;;;;;;;29.00;13.75;;;4.80;99.90;;;;;;5030534;28;20135;-60
2022/03/10 07:30:33;;;;;;;23.73;12.48;;;4.80;99.90;;;;;;5026143;28;20029;-62
2022/03/10 07:32:58;;;;;;;27.27;13.23;;;5.00;99.90;;;;;;5027406;28;20056;-61
2022/03/10 07:35:24;;;;;;;26.00;12.90;;;5.10;99.90;;;;;;5031353;28;20075;-61
2022/03/10 07:37:51;;;;;;;22.73;12.80;;;5.10;99.90;;;;;;5034715;28;20020;-61
2022/03/10 07:40:17;;;;;;;25.75;11.90;;;5.20;99.90;;;;;;5027004;28;20075;-59
2022/03/10 07:42:43;;;;;;;23.98;12.70;;;5.40;99.90;;;;;;5025355;28;20703;-61
2022/03/10 07:45:09;;;;;;;22.60;12.23;;;5.40;99.90;;;;;;5024525;28;20018;-61
2022/03/10 07:47:35;;;;;;;16.92;11.05;;;5.50;99.90;;;;;;5032542;28;20082;-61
2022/03/10 07:50:00;;;;;;;23.40;12.52;;;5.60;99.90;;;;;;5027724;28;20048;-62
2022/03/10 07:52:26;;;;;;;25.83;12.60;;;5.70;99.90;;;;;;5033990;28;20094;-62
2022/03/10 07:54:51;;;;;;;23.95;12.15;;;5.80;99.90;;;;;;5026575;28;20037;-59
2022/03/10 07:57:17;;;;;;;21.85;12.00;;;5.90;99.90;;;;;;5028232;28;20442;-62
2022/03/10 07:59:43;;;;;;;23.17;12.68;;;6.00;99.90;;;;;;5027235;28;20053;-61
2022/03/10 08:02:08;;;;;;;23.13;12.13;;;6.10;99.90;;;;;;5025770;28;20017;-60
2022/03/10 08:04:34;;;;;;;25.15;12.85;;;6.20;99.90;;;;;;5029585;28;20064;-61
2022/03/10 08:06:59;;;;;;;19.20;12.40;;;6.20;99.90;;;;;;5033341;28;20028;-61
2022/03/10 08:09:25;;;;;;;19.42;12.65;;;6.40;99.90;;;;;;5029326;28;20025;-62
2022/03/10 08:11:50;;;;;;;20.25;12.40;;;6.60;99.90;;;;;;5025993;28;20466;-61
2022/03/10 08:14:16;;;;;;;18.38;12.35;;;6.70;99.90;;;;;;5029938;28;20434;-61
2022/03/10 08:16:42;;;;;;;21.70;12.38;;;6.70;99.90;;;;;;5028719;28;20428;-62
2022/03/10 08:19:09;;;;;;;20.80;12.55;;;6.70;99.90;;;;;;5021065;28;20048;-60
2022/03/10 08:21:34;;;;;;;20.05;12.65;;;6.80;99.90;;;;;;5037436;28;20025;-61
2022/03/10 08:24:00;;;;;;;18.63;12.25;;;7.00;99.90;;;;;;5037662;28;20044;-62
2022/03/10 08:26:26;;;;;;;18.55;11.60;;;7.00;99.90;;;;;;5027943;28;20634;-61
2022/03/10 08:28:53;;;;;;;20.48;12.10;;;7.10;99.90;;;;;;5027376;28;20540;-62
2022/03/10 08:31:20;;;;;;;21.50;12.45;;;7.20;99.90;;;;;;5031272;28;20390;-60
2022/03/10 08:33:46;;;;;;;20.55;11.95;;;7.20;99.90;;;;;;5034574;28;20079;-62
2022/03/10 08:36:12;;;;;;;20.90;11.80;;;7.30;99.90;;;;;;5031204;28;20022;-62
2022/03/10 08:38:38;;;;;;;18.60;11.75;;;7.40;99.90;;;;;;5031426;28;20465;-62
2022/03/10 08:41:04;;;;;;;21.08;11.93;;;7.40;99.90;;;;;;5024430;28;20029;-61
2022/03/10 08:43:31;;;;;;;19.17;12.73;;;7.50;99.90;;;;;;5028599;28;20303;-60
2022/03/10 08:45:58;;;;;;;22.02;12.63;;;7.70;99.90;;;;;;5028973;28;20045;-61
2022/03/10 08:48:24;;;;;;;19.58;12.10;;;7.70;99.90;;;;;;5031301;28;20022;-61
2022/03/10 08:50:49;;;;;;;23.55;12.95;;;7.80;99.90;;;;;;5030403;28;20979;-62
2022/03/10 08:53:15;;;;;;;23.95;12.75;;;8.00;99.90;;;;;;5031018;28;20032;-62
2022/03/10 08:55:41;;;;;;;21.73;12.65;;;8.00;99.90;;;;;;5028729;28;20134;-62
2022/03/10 08:58:06;;;;;;;21.80;12.15;;;8.00;99.90;;;;;;5029105;28;20159;-62
2022/03/10 09:00:33;;;;;;;25.17;13.50;;;8.00;99.90;;;;;;5030895;28;20033;-61
2022/03/10 09:02:59;;;;;;;22.90;12.88;;;8.10;99.90;;;;;;5031902;28;20056;-62
2022/03/10 09:05:25;;;;;;;19.27;12.38;;;8.20;99.90;;;;;;5028217;28;20146;-61
2022/03/10 09:07:51;;;;;;;21.58;13.27;;;8.20;99.90;;;;;;5038380;28;20028;-62
2022/03/10 09:10:16;;;;;;;19.33;12.60;;;8.30;99.90;;;;;;5031742;28;20595;-61
2022/03/10 09:12:42;;;;;;;21.80;13.25;;;8.40;99.90;;;;;;5031104;28;20160;-61
2022/03/10 09:15:09;;;;;;;18.63;12.88;;;8.50;99.90;;;;;;5034629;28;20720;-61
2022/03/10 09:17:34;;;;;;;20.90;13.32;;;8.50;99.90;;;;;;5027955;28;20029;-61
2022/03/10 09:20:00;;;;;;;20.85;13.13;;;8.60;99.90;;;;;;5032916;28;20653;-62
2022/03/10 09:22:26;;;;;;;21.45;13.30;;;8.60;99.90;;;;;;5024012;28;20068;-62
2022/03/10 09:24:52;;;;;;;23.67;13.80;;;8.70;99.90;;;;;;5027395;28;20075;-62
2022/03/10 09:27:18;;;;;;;22.13;14.25;;;8.80;99.90;;;;;;5032280;28;20021;-62
2022/03/10 09:29:44;;;;;;;31.80;14.82;;;8.90;99.90;;;;;;5026864;28;20025;-62
2022/03/10 09:32:11;;;;;;;24.30;13.95;;;9.00;99.90;;;;;;5032019;28;20151;-61
2022/03/10 09:34:37;;;;;;;23.35;14.20;;;9.00;99.90;;;;;;5026165;28;20048;-63
2022/03/10 09:37:03;;;;;;;21.38;13.95;;;8.40;99.90;;;;;;5023897;28;20030;-62
2022/03/10 09:39:28;;;;;;;22.65;14.15;;;9.20;99.90;;;;;;5027554;28;20021;-60
2022/03/10 09:41:56;;;;;;;23.27;14.43;;;9.30;99.90;;;;;;5032291;28;20021;-61
2022/03/10 09:44:22;;;;;;;22.20;14.07;;;9.30;99.90;;;;;;5027172;28;20431;-62
2022/03/10 09:46:50;;;;;;;23.10;15.05;;;9.40;99.90;;;;;;5031101;28;20029;-62
2022/03/10 09:49:19;;;;;;;24.75;15.00;;;9.50;99.90;;;;;;5034507;28;20515;-62
2022/03/10 09:51:45;;;;;;;22.30;14.02;;;9.50;99.90;;;;;;5024693;28;20033;-61
2022/03/10 09:54:11;;;;;;;25.02;14.63;;;9.60;99.90;;;;;;5033548;28;20024;-61
2022/03/10 09:56:39;;;;;;;23.90;14.40;;;9.70;99.90;;;;;;5030468;28;20376;-61
2022/03/10 09:59:06;;;;;;;24.17;15.32;;;9.90;99.90;;;;;;5028904;28;20353;-62
2022/03/10 10:01:32;;;;;;;24.85;16.30;;;9.80;99.90;;;;;;5029858;28;20048;-62
2022/03/10 10:03:58;;;;;;;25.52;14.82;;;10.00;99.90;;;;;;5028467;28;20489;-62
2022/03/10 10:06:23;;;;;;;27.63;16.08;;;9.90;99.90;;;;;;5029116;28;20357;-62
2022/03/10 10:08:54;;;;;;;27.50;14.65;;;;;;;;;;5024880;28;20075;-62
2022/03/10 10:11:29;;;;;;;27.50;16.48;;;10.10;99.90;;;;;;5036563;28;20033;-62
2022/03/10 10:13:55;;;;;;;28.58;16.08;;;10.10;99.90;;;;;;5030902;28;20044;-63
2022/03/10 10:16:22;;;;;;;25.30;15.88;;;10.20;99.90;;;;;;5031062;28;20628;-62
2022/03/10 10:18:57;;;;;;;25.83;16.13;;;10.20;99.90;;;;;;5027790;28;20064;-62
2022/03/10 10:21:24;;;;;;;27.02;16.00;;;10.40;99.90;;;;;;5028558;28;20021;-61
2022/03/10 10:23:52;;;;;;;28.30;15.15;;;10.40;99.90;;;;;;5029737;28;20029;-62
2022/03/10 10:26:26;;;;;;;26.40;16.52;;;10.40;99.90;;;;;;5030007;28;20029;-63
2022/03/10 10:28:52;;;;;;;24.17;15.63;;;10.50;99.90;;;;;;5031264;28;20120;-60
2022/03/10 10:31:24;;;;;;;27.42;16.60;;;10.60;99.90;;;;;;5032034;28;20022;-62
2022/03/10 10:34:09;;;;;;;26.63;16.27;;;10.70;99.90;;;;;;5023741;28;20426;-62
2022/03/10 10:36:37;;;;;;;28.63;16.73;;;10.70;99.90;;;;;;5024645;28;20064;-62
2022/03/10 10:39:12;;;;;;;28.80;17.05;;;10.70;99.90;;;;;;5032949;28;20041;-62
2022/03/10 10:41:39;;;;;;;24.77;16.27;;;10.80;99.90;;;;;;5027709;28;20468;-62
2022/03/10 10:44:07;;;;;;;28.02;16.40;;;10.90;99.90;;;;;;5026257;28;20071;-62
2022/03/10 10:46:38;;;;;;;29.38;17.35;;;10.90;99.90;;;;;;5026960;28;20060;-62
2022/03/10 10:49:15;;;;;;;26.70;16.75;;;11.00;99.90;;;;;;5028366;28;20032;-62
2022/03/10 10:51:55;;;;;;;25.92;16.38;;;11.00;99.90;;;;;;5028873;28;20484;-62
2022/03/10 10:54:21;;;;;;;26.60;16.77;;;11.00;99.90;;;;;;5026606;28;20036;-62
2022/03/10 10:57:18;;;;;;;27.75;16.52;;;11.10;99.90;;;;;;5021738;28;20029;-63
2022/03/10 10:59:43;;;;;;;27.85;16.70;;;11.20;99.90;;;;;;5024582;28;20589;-63
2022/03/10 11:02:17;;;;;;;27.92;16.40;;;11.20;99.90;;;;;;5026686;28;20052;-62
2022/03/10 11:04:51;;;;;;;30.48;16.48;;;11.20;99.90;;;;;;5034065;28;20044;-62
2022/03/10 11:07:18;;;;;;;29.58;16.83;;;11.30;99.90;;;;;;5029114;28;20095;-62
2022/03/10 11:09:45;;;;;;;30.38;17.00;;;11.30;99.90;;;;;;5026394;28;20024;-62
2022/03/10 11:12:13;;;;;;;25.10;15.48;;;11.30;99.90;;;;;;5024534;28;20328;-61
2022/03/10 11:14:40;;;;;;;29.35;16.00;;;11.50;99.90;;;;;;5019549;28;20537;-61
2022/03/10 11:17:06;;;;;;;28.63;16.85;;;11.50;99.90;;;;;;5030518;28;20396;-62
2022/03/10 11:19:44;;;;;;;26.75;16.42;;;11.60;99.90;;;;;;5023346;28;20412;-62
2022/03/10 11:22:45;;;;;;;30.13;17.83;;;11.60;99.90;;;;;;5022188;28;20013;-63
2022/03/10 11:25:24;;;;;;;27.23;17.15;;;;;;;;;;5025302;28;20064;-62
2022/03/10 11:27:55;;;;;;;25.65;17.05;;;11.70;99.90;;;;;;5023580;28;20052;-62
2022/03/10 11:30:26;;;;;;;28.80;17.02;;;11.90;99.90;;;;;;5023538;28;20025;-62
2022/03/10 11:33:09;;;;;;;30.45;17.02;;;11.40;99.90;;;;;;5025963;28;20049;-62
2022/03/10 11:35:40;;;;;;;25.58;16.75;;;12.00;99.90;;;;;;5024316;28;20046;-62
2022/03/10 11:38:06;;;;;;;28.50;16.75;;;12.00;99.90;;;;;;5021442;28;20037;-62
2022/03/10 11:40:43;;;;;;;31.77;17.45;;;12.00;99.90;;;;;;5027801;28;20025;-62
2022/03/10 11:43:10;;;;;;;27.77;17.10;;;12.10;99.90;;;;;;5023171;28;20037;-62
2022/03/10 11:45:36;;;;;;;26.15;16.02;;;12.00;99.90;;;;;;5031834;28;20041;-61
2022/03/10 11:48:29;;;;;;;26.95;16.73;;;12.10;99.90;;;;;;5029612;28;20217;-62
2022/03/10 11:50:55;;;;;;;30.20;17.30;;;12.00;99.90;;;;;;5034458;28;20450;-62
2022/03/10 11:53:21;;;;;;;27.27;15.48;;;12.10;99.90;;;;;;5029238;28;20075;-63
2022/03/10 11:55:51;;;;;;;24.40;16.40;;;12.10;99.90;;;;;;5031592;28;20099;-63
2022/03/10 11:58:34;;;;;;;26.30;16.75;;;12.10;99.90;;;;;;5024948;28;20028;-62
2022/03/10 12:01:01;;;;;;;24.77;16.02;;;12.20;99.90;;;;;;5028603;28;20033;-63
2022/03/10 12:03:29;;;;;;;27.95;15.98;;;12.20;99.90;;;;;;5030003;28;20029;-62
2022/03/10 12:05:59;;;;;;;28.92;16.15;;;12.20;99.90;;;;;;5030939;28;20632;-63
2022/03/10 12:09:00;;;;;;;26.95;16.50;;;12.30;99.90;;;;;;5035325;28;20040;-62
2022/03/10 12:11:47;;;;;;;26.05;15.98;;;12.50;99.90;;;;;;5023389;28;20025;-62
2022/03/10 12:14:27;;;;;;;26.08;15.35;;;12.40;99.90;;;;;;5029877;28;20025;-62
2022/03/10 12:16:53;;;;;;;27.90;16.55;;;12.50;99.90;;;;;;5028439;28;20030;-63
2022/03/10 12:19:19;;;;;;;24.83;15.95;;;12.50;99.90;;;;;;5024003;28;20044;-62
2022/03/10 12:21:44;;;;;;;28.02;16.33;;;12.50;99.90;;;;;;5031272;28;20079;-63
2022/03/10 12:24:12;;;;;;;28.60;16.08;;;12.50;99.90;;;;;;5026195;28;20029;-62
2022/03/10 12:26:42;;;;;;;25.33;15.82;;;12.50;99.90;;;;;;5029776;28;20124;-62
2022/03/10 12:29:09;;;;;;;23.17;15.98;;;12.50;99.90;;;;;;5025375;28;20160;-62
2022/03/10 12:31:36;;;;;;;28.23;15.48;;;12.60;99.90;;;;;;5031404;28;20029;-62
2022/03/10 12:34:15;;;;;;;26.88;16.08;;;12.90;99.90;;;;;;5027235;28;20075;-62
2022/03/10 12:36:51;;;;;;;31.88;16.80;;;13.00;99.90;;;;;;5025154;28;20468;-63
2022/03/10 12:39:26;;;;;;;27.45;17.00;;;13.10;99.90;;;;;;5024145;28;20042;-62
2022/03/10 12:41:54;;;;;;;27.80;16.80;;;13.20;99.90;;;;;;5024970;28;20032;-62